Avioradar koristi kolačiće da bi Vam omogućio jednostavnije i ugodnije korištenje stranice. 

AVIORADAR - Novosti i informacije

Poremećaj 12.08.2017 - Dubrovnik - nevrijeme

Nenad Sredojević.

f_800_450_16119285_00_images_SQUAWK_DBV_bura_18jan16_CTK_ctk_td_30.jpg

U večernjim satima došlo je do poremećaja u zračnom prometu na ZL Dubrovnik

 
METAR LDDU 122200Z 02017KT 340V060 9999 FEW045CB SCT055 23/13 Q1011 TEMPO TSRA =
METAR LDDU 122130Z 04010KT 350V080 9999 FEW035CB SCT055 23/15 Q1011 TEMPO TSRA =
METAR LDDU 122100Z 29013KT 250V350 9999 TS FEW035CB SCT040 24/17 Q1011 TEMPO NSW =
METAR LDDU 122030Z 28015KT 250V310 9999 TSRA FEW035CB SCT040 24/17 Q1011 BECMG -TSRA =
METAR COR LDDU 122000Z 29013KT 250V320 9999 TS FEW035CB SCT040 24/17 Q1010 TEMPO 4000 -TSRA =

Kako doznajemo, slijetanje na stazu 12 nije bilo moguće zbog jakog leđnog vjetra dok je na stazi 30 prilaz ometao Cumulonimbus (CB). Zbog velikog broja zrakoplova u holdingu a također i nevremena, nisu bila moguća ni polijetanja.

Vremenom se CB nadvio nad kompletnu zračnu luku, uključujući i prilaz stazi 12.

Poremećaj 13.08.2017 - Dubrovnik - Udari bure

Nakon 23 sata po lokalnom vremenu situacija se normalizirala te su zrakoplovi koji nisu preusmjereni, sletjeli. Malo ranije, normaliziran je i odlazni promet. 

Poremećajem su zahvaćeni dolasci:

D83280 /IBK28Y iz CPH -> HOLDING @KLP -> U PRILAZU -> SLETIO 2304LT

OU664 /CTN664 iz ZAG -> HOLDING @KLP -> U PRILAZU -> SLETIO 2310LT

VY7725 /VLG7725 iz BCN -> HOLDING @KLP -> PREUSMJEREN NA FCO

U22041 /EZY89GV iz LTN -> HOLDING @AMUGO -> PREUSMJEREN NA ZAG

TO3744 /TVF3744 iz ORY -> HOLDING @NERRA -> U PRILAZU -> SLETIO 2320LT

U21807 /EZY19EA iz MAN -> HOLDING @NERRA -> PREUSMJEREN NA ZAG

f_800_450_16119285_00_images_SQUAWK_DBV1208.jpg

 

 

Foto: Avioradar / Screenshot: Flightradar24 / METAR podatci: Hrvatska kontrola zračne plovidbe

Twitter